sensor_id;sensor_type;location;lat;lon;timestamp;P1;durP1;ratioP1;P2;durP2;ratioP2
51913;SDS011;37940;53.002;6.930;2022-09-28T00:02:01;18.73;;;9.43;;
51913;SDS011;37940;53.002;6.930;2022-09-28T00:04:27;12.55;;;8.20;;
51913;SDS011;37940;53.002;6.930;2022-09-28T00:06:52;15.70;;;8.52;;
51913;SDS011;37940;53.002;6.930;2022-09-28T00:09:18;18.30;;;8.73;;
51913;SDS011;37940;53.002;6.930;2022-09-28T00:11:44;16.90;;;8.77;;
51913;SDS011;37940;53.002;6.930;2022-09-28T00:14:11;16.02;;;10.57;;
51913;SDS011;37940;53.002;6.930;2022-09-28T00:16:38;18.42;;;9.77;;
51913;SDS011;37940;53.002;6.930;2022-09-28T00:19:05;18.13;;;10.60;;
51913;SDS011;37940;53.002;6.930;2022-09-28T00:21:33;17.00;;;10.32;;
51913;SDS011;37940;53.002;6.930;2022-09-28T00:24:01;20.90;;;11.02;;
51913;SDS011;37940;53.002;6.930;2022-09-28T00:26:47;19.25;;;10.45;;
51913;SDS011;37940;53.002;6.930;2022-09-28T00:31:45;20.63;;;10.57;;
51913;SDS011;37940;53.002;6.930;2022-09-28T00:34:12;21.52;;;11.32;;
51913;SDS011;37940;53.002;6.930;2022-09-28T00:36:38;18.88;;;10.77;;
51913;SDS011;37940;53.002;6.930;2022-09-28T00:39:06;17.45;;;10.40;;
51913;SDS011;37940;53.002;6.930;2022-09-28T00:41:32;26.00;;;12.63;;
51913;SDS011;37940;53.002;6.930;2022-09-28T00:52:41;20.73;;;10.65;;
51913;SDS011;37940;53.002;6.930;2022-09-28T00:55:08;20.63;;;10.98;;
51913;SDS011;37940;53.002;6.930;2022-09-28T00:57:41;19.52;;;10.93;;
51913;SDS011;37940;53.002;6.930;2022-09-28T01:00:13;23.00;;;10.77;;
51913;SDS011;37940;53.002;6.930;2022-09-28T01:02:39;20.17;;;10.77;;
51913;SDS011;37940;53.002;6.930;2022-09-28T01:05:06;17.50;;;10.80;;
51913;SDS011;37940;53.002;6.930;2022-09-28T01:07:34;25.10;;;12.10;;
51913;SDS011;37940;53.002;6.930;2022-09-28T01:10:02;29.13;;;12.43;;
51913;SDS011;37940;53.002;6.930;2022-09-28T01:12:28;18.20;;;10.60;;
51913;SDS011;37940;53.002;6.930;2022-09-28T01:14:53;16.70;;;9.82;;
51913;SDS011;37940;53.002;6.930;2022-09-28T01:17:24;18.75;;;10.13;;
51913;SDS011;37940;53.002;6.930;2022-09-28T01:22:57;19.85;;;11.63;;
51913;SDS011;37940;53.002;6.930;2022-09-28T01:25:44;20.35;;;11.30;;
51913;SDS011;37940;53.002;6.930;2022-09-28T01:28:26;20.58;;;11.45;;
51913;SDS011;37940;53.002;6.930;2022-09-28T01:33:37;26.23;;;12.98;;
51913;SDS011;37940;53.002;6.930;2022-09-28T01:36:45;24.95;;;11.93;;
51913;SDS011;37940;53.002;6.930;2022-09-28T01:39:15;23.23;;;11.57;;
51913;SDS011;37940;53.002;6.930;2022-09-28T01:41:45;20.58;;;11.88;;
51913;SDS011;37940;53.002;6.930;2022-09-28T01:44:16;27.30;;;13.30;;
51913;SDS011;37940;53.002;6.930;2022-09-28T01:46:47;21.35;;;12.35;;
51913;SDS011;37940;53.002;6.930;2022-09-28T01:49:27;28.30;;;13.00;;
51913;SDS011;37940;53.002;6.930;2022-09-28T01:52:00;26.63;;;13.15;;
51913;SDS011;37940;53.002;6.930;2022-09-28T01:54:48;22.17;;;12.80;;
51913;SDS011;37940;53.002;6.930;2022-09-28T01:57:36;25.85;;;12.95;;
51913;SDS011;37940;53.002;6.930;2022-09-28T02:00:10;27.40;;;13.52;;
51913;SDS011;37940;53.002;6.930;2022-09-28T02:02:39;28.98;;;13.52;;
51913;SDS011;37940;53.002;6.930;2022-09-28T02:05:33;24.05;;;11.88;;
51913;SDS011;37940;53.002;6.930;2022-09-28T02:08:06;30.45;;;13.63;;
51913;SDS011;37940;53.002;6.930;2022-09-28T02:10:43;21.23;;;11.48;;
51913;SDS011;37940;53.002;6.930;2022-09-28T02:13:35;23.73;;;12.63;;
51913;SDS011;37940;53.002;6.930;2022-09-28T02:18:46;24.38;;;13.18;;
51913;SDS011;37940;53.002;6.930;2022-09-28T02:21:14;32.60;;;15.20;;
51913;SDS011;37940;53.002;6.930;2022-09-28T02:23:48;126.75;;;15.65;;
51913;SDS011;37940;53.002;6.930;2022-09-28T02:26:21;46.97;;;12.70;;
51913;SDS011;37940;53.002;6.930;2022-09-28T02:28:51;86.15;;;13.65;;
51913;SDS011;37940;53.002;6.930;2022-09-28T02:31:17;59.47;;;13.82;;
51913;SDS011;37940;53.002;6.930;2022-09-28T02:33:43;67.13;;;16.45;;
51913;SDS011;37940;53.002;6.930;2022-09-28T02:36:10;64.90;;;13.23;;
51913;SDS011;37940;53.002;6.930;2022-09-28T02:38:36;314.33;;;22.35;;
51913;SDS011;37940;53.002;6.930;2022-09-28T02:46:14;148.13;;;14.90;;
51913;SDS011;37940;53.002;6.930;2022-09-28T02:51:42;116.95;;;15.63;;
51913;SDS011;37940;53.002;6.930;2022-09-28T03:02:27;270.83;;;20.33;;
51913;SDS011;37940;53.002;6.930;2022-09-28T03:07:58;228.23;;;18.65;;
51913;SDS011;37940;53.002;6.930;2022-09-28T03:10:44;264.55;;;21.88;;
51913;SDS011;37940;53.002;6.930;2022-09-28T03:13:18;159.45;;;17.05;;
51913;SDS011;37940;53.002;6.930;2022-09-28T03:15:44;191.93;;;16.65;;
51913;SDS011;37940;53.002;6.930;2022-09-28T03:18:10;135.88;;;15.80;;
51913;SDS011;37940;53.002;6.930;2022-09-28T03:20:37;143.85;;;16.60;;
51913;SDS011;37940;53.002;6.930;2022-09-28T03:23:02;181.45;;;16.20;;
51913;SDS011;37940;53.002;6.930;2022-09-28T03:25:28;254.43;;;18.13;;
51913;SDS011;37940;53.002;6.930;2022-09-28T03:27:54;106.07;;;12.77;;
51913;SDS011;37940;53.002;6.930;2022-09-28T03:30:20;195.32;;;16.65;;
51913;SDS011;37940;53.002;6.930;2022-09-28T03:32:46;176.45;;;18.20;;
51913;SDS011;37940;53.002;6.930;2022-09-28T03:35:12;121.65;;;14.27;;
51913;SDS011;37940;53.002;6.930;2022-09-28T03:37:38;109.32;;;14.82;;
51913;SDS011;37940;53.002;6.930;2022-09-28T03:40:03;86.60;;;14.18;;
51913;SDS011;37940;53.002;6.930;2022-09-28T03:42:30;119.65;;;16.88;;
51913;SDS011;37940;53.002;6.930;2022-09-28T03:44:55;82.07;;;13.65;;
51913;SDS011;37940;53.002;6.930;2022-09-28T03:47:21;153.50;;;18.13;;
51913;SDS011;37940;53.002;6.930;2022-09-28T03:49:47;127.78;;;14.38;;
51913;SDS011;37940;53.002;6.930;2022-09-28T03:52:12;228.45;;;19.05;;
51913;SDS011;37940;53.002;6.930;2022-09-28T03:54:38;161.00;;;16.63;;
51913;SDS011;37940;53.002;6.930;2022-09-28T03:57:04;181.15;;;19.25;;
51913;SDS011;37940;53.002;6.930;2022-09-28T03:59:30;279.75;;;21.30;;
51913;SDS011;37940;53.002;6.930;2022-09-28T04:01:56;177.68;;;17.50;;
51913;SDS011;37940;53.002;6.930;2022-09-28T04:04:22;305.38;;;23.90;;
51913;SDS011;37940;53.002;6.930;2022-09-28T04:06:47;174.60;;;16.75;;
51913;SDS011;37940;53.002;6.930;2022-09-28T04:09:13;490.92;;;33.33;;
51913;SDS011;37940;53.002;6.930;2022-09-28T04:11:40;286.77;;;20.77;;
51913;SDS011;37940;53.002;6.930;2022-09-28T04:14:06;237.20;;;19.85;;
51913;SDS011;37940;53.002;6.930;2022-09-28T04:16:31;195.23;;;18.90;;
51913;SDS011;37940;53.002;6.930;2022-09-28T04:18:57;206.50;;;17.90;;
51913;SDS011;37940;53.002;6.930;2022-09-28T04:21:23;397.02;;;23.88;;
51913;SDS011;37940;53.002;6.930;2022-09-28T04:23:49;380.05;;;24.88;;
51913;SDS011;37940;53.002;6.930;2022-09-28T04:26:20;312.70;;;22.73;;
51913;SDS011;37940;53.002;6.930;2022-09-28T04:28:47;327.92;;;25.98;;
51913;SDS011;37940;53.002;6.930;2022-09-28T04:34:08;559.10;;;35.80;;
51913;SDS011;37940;53.002;6.930;2022-09-28T04:36:34;259.45;;;19.63;;
51913;SDS011;37940;53.002;6.930;2022-09-28T04:39:00;174.73;;;17.67;;
51913;SDS011;37940;53.002;6.930;2022-09-28T04:41:25;298.92;;;20.80;;
51913;SDS011;37940;53.002;6.930;2022-09-28T04:43:51;190.35;;;17.83;;
51913;SDS011;37940;53.002;6.930;2022-09-28T04:46:17;232.70;;;20.42;;
51913;SDS011;37940;53.002;6.930;2022-09-28T04:48:43;185.15;;;20.58;;
51913;SDS011;37940;53.002;6.930;2022-09-28T04:51:09;157.82;;;17.55;;
51913;SDS011;37940;53.002;6.930;2022-09-28T04:53:35;103.07;;;16.55;;
51913;SDS011;37940;53.002;6.930;2022-09-28T04:56:06;138.52;;;16.13;;
51913;SDS011;37940;53.002;6.930;2022-09-28T05:01:01;108.25;;;19.00;;
51913;SDS011;37940;53.002;6.930;2022-09-28T05:03:29;111.50;;;18.45;;
51913;SDS011;37940;53.002;6.930;2022-09-28T05:05:55;175.77;;;20.40;;
51913;SDS011;37940;53.002;6.930;2022-09-28T05:08:21;98.22;;;17.70;;
51913;SDS011;37940;53.002;6.930;2022-09-28T05:10:47;137.88;;;19.15;;
51913;SDS011;37940;53.002;6.930;2022-09-28T05:13:13;148.02;;;17.50;;
51913;SDS011;37940;53.002;6.930;2022-09-28T05:15:39;107.43;;;17.95;;
51913;SDS011;37940;53.002;6.930;2022-09-28T05:18:06;143.23;;;18.33;;
51913;SDS011;37940;53.002;6.930;2022-09-28T05:20:32;113.05;;;15.77;;
51913;SDS011;37940;53.002;6.930;2022-09-28T05:22:58;96.53;;;17.58;;
51913;SDS011;37940;53.002;6.930;2022-09-28T05:25:24;172.98;;;20.05;;
51913;SDS011;37940;53.002;6.930;2022-09-28T05:27:53;111.03;;;18.30;;
51913;SDS011;37940;53.002;6.930;2022-09-28T05:30:20;334.15;;;25.15;;
51913;SDS011;37940;53.002;6.930;2022-09-28T05:32:47;90.20;;;16.52;;
51913;SDS011;37940;53.002;6.930;2022-09-28T05:35:15;205.95;;;21.17;;
51913;SDS011;37940;53.002;6.930;2022-09-28T05:37:41;116.95;;;17.15;;
51913;SDS011;37940;53.002;6.930;2022-09-28T05:40:07;185.27;;;21.60;;
51913;SDS011;37940;53.002;6.930;2022-09-28T05:42:34;144.63;;;18.98;;
51913;SDS011;37940;53.002;6.930;2022-09-28T05:44:59;296.95;;;25.95;;
51913;SDS011;37940;53.002;6.930;2022-09-28T05:47:27;193.75;;;21.13;;
51913;SDS011;37940;53.002;6.930;2022-09-28T05:49:53;128.52;;;20.05;;
51913;SDS011;37940;53.002;6.930;2022-09-28T05:52:20;169.18;;;22.85;;
51913;SDS011;37940;53.002;6.930;2022-09-28T05:54:46;124.72;;;19.23;;
51913;SDS011;37940;53.002;6.930;2022-09-28T05:57:12;108.50;;;18.23;;
51913;SDS011;37940;53.002;6.930;2022-09-28T05:59:39;193.55;;;23.30;;
51913;SDS011;37940;53.002;6.930;2022-09-28T06:02:05;78.45;;;15.80;;
51913;SDS011;37940;53.002;6.930;2022-09-28T06:04:31;118.70;;;17.17;;
51913;SDS011;37940;53.002;6.930;2022-09-28T06:06:57;260.25;;;23.60;;
51913;SDS011;37940;53.002;6.930;2022-09-28T06:09:23;93.93;;;15.98;;
51913;SDS011;37940;53.002;6.930;2022-09-28T06:11:49;113.72;;;17.83;;
51913;SDS011;37940;53.002;6.930;2022-09-28T06:14:15;108.60;;;16.95;;
51913;SDS011;37940;53.002;6.930;2022-09-28T06:16:41;207.60;;;20.95;;
51913;SDS011;37940;53.002;6.930;2022-09-28T06:19:08;187.82;;;20.92;;
51913;SDS011;37940;53.002;6.930;2022-09-28T06:21:34;261.52;;;19.67;;
51913;SDS011;37940;53.002;6.930;2022-09-28T06:24:00;243.73;;;20.35;;
51913;SDS011;37940;53.002;6.930;2022-09-28T06:26:27;377.95;;;27.30;;
51913;SDS011;37940;53.002;6.930;2022-09-28T06:28:52;188.75;;;17.20;;
51913;SDS011;37940;53.002;6.930;2022-09-28T06:31:18;142.13;;;15.77;;
51913;SDS011;37940;53.002;6.930;2022-09-28T06:33:48;275.80;;;22.90;;
51913;SDS011;37940;53.002;6.930;2022-09-28T06:36:14;266.77;;;18.75;;
51913;SDS011;37940;53.002;6.930;2022-09-28T06:38:41;314.25;;;23.13;;
51913;SDS011;37940;53.002;6.930;2022-09-28T06:41:07;213.95;;;18.08;;
51913;SDS011;37940;53.002;6.930;2022-09-28T06:43:33;398.60;;;25.73;;
51913;SDS011;37940;53.002;6.930;2022-09-28T06:46:00;228.88;;;20.73;;
51913;SDS011;37940;53.002;6.930;2022-09-28T06:48:26;309.73;;;23.02;;
51913;SDS011;37940;53.002;6.930;2022-09-28T06:50:52;144.35;;;14.88;;
51913;SDS011;37940;53.002;6.930;2022-09-28T06:53:18;237.45;;;17.48;;
51913;SDS011;37940;53.002;6.930;2022-09-28T06:55:44;362.27;;;21.15;;
51913;SDS011;37940;53.002;6.930;2022-09-28T06:58:15;263.60;;;18.85;;
51913;SDS011;37940;53.002;6.930;2022-09-28T07:00:42;144.68;;;14.73;;
51913;SDS011;37940;53.002;6.930;2022-09-28T07:03:15;271.85;;;18.40;;
51913;SDS011;37940;53.002;6.930;2022-09-28T07:05:44;232.25;;;16.58;;
51913;SDS011;37940;53.002;6.930;2022-09-28T07:08:13;249.68;;;19.27;;
51913;SDS011;37940;53.002;6.930;2022-09-28T07:10:43;159.50;;;14.98;;
51913;SDS011;37940;53.002;6.930;2022-09-28T07:13:10;192.13;;;17.88;;
51913;SDS011;37940;53.002;6.930;2022-09-28T07:15:39;329.05;;;21.20;;
51913;SDS011;37940;53.002;6.930;2022-09-28T07:18:07;178.48;;;21.45;;
51913;SDS011;37940;53.002;6.930;2022-09-28T07:20:35;224.55;;;22.17;;
51913;SDS011;37940;53.002;6.930;2022-09-28T07:23:02;301.52;;;26.33;;
51913;SDS011;37940;53.002;6.930;2022-09-28T07:25:29;297.90;;;28.02;;
51913;SDS011;37940;53.002;6.930;2022-09-28T07:27:59;177.55;;;18.63;;
51913;SDS011;37940;53.002;6.930;2022-09-28T07:30:27;154.48;;;16.15;;
51913;SDS011;37940;53.002;6.930;2022-09-28T07:32:57;362.58;;;26.58;;
51913;SDS011;37940;53.002;6.930;2022-09-28T07:35:24;215.82;;;15.82;;
51913;SDS011;37940;53.002;6.930;2022-09-28T07:38:03;138.27;;;15.57;;
51913;SDS011;37940;53.002;6.930;2022-09-28T07:40:30;140.43;;;14.57;;
51913;SDS011;37940;53.002;6.930;2022-09-28T07:43:16;144.68;;;15.65;;
51913;SDS011;37940;53.002;6.930;2022-09-28T07:45:45;132.55;;;15.80;;
51913;SDS011;37940;53.002;6.930;2022-09-28T07:50:47;205.25;;;16.92;;
51913;SDS011;37940;53.002;6.930;2022-09-28T07:53:20;191.80;;;16.40;;
51913;SDS011;37940;53.002;6.930;2022-09-28T07:58:20;133.17;;;14.43;;
51913;SDS011;37940;53.002;6.930;2022-09-28T08:00:46;144.77;;;16.02;;
51913;SDS011;37940;53.002;6.930;2022-09-28T08:03:14;234.52;;;16.73;;
51913;SDS011;37940;53.002;6.930;2022-09-28T08:05:40;142.68;;;15.55;;
51913;SDS011;37940;53.002;6.930;2022-09-28T08:08:07;164.05;;;15.98;;
51913;SDS011;37940;53.002;6.930;2022-09-28T08:10:33;114.20;;;14.85;;
51913;SDS011;37940;53.002;6.930;2022-09-28T08:12:59;181.38;;;17.02;;
51913;SDS011;37940;53.002;6.930;2022-09-28T08:15:29;98.10;;;15.95;;
51913;SDS011;37940;53.002;6.930;2022-09-28T08:18:01;208.50;;;18.13;;
51913;SDS011;37940;53.002;6.930;2022-09-28T08:20:28;109.90;;;14.95;;
51913;SDS011;37940;53.002;6.930;2022-09-28T08:23:13;126.60;;;14.32;;
51913;SDS011;37940;53.002;6.930;2022-09-28T08:25:39;112.30;;;12.98;;
51913;SDS011;37940;53.002;6.930;2022-09-28T08:28:12;66.68;;;12.80;;
51913;SDS011;37940;53.002;6.930;2022-09-28T08:30:40;111.65;;;12.23;;
51913;SDS011;37940;53.002;6.930;2022-09-28T08:33:06;90.85;;;12.43;;
51913;SDS011;37940;53.002;6.930;2022-09-28T08:35:32;90.18;;;11.95;;
51913;SDS011;37940;53.002;6.930;2022-09-28T08:37:57;77.53;;;11.07;;
51913;SDS011;37940;53.002;6.930;2022-09-28T08:40:24;38.08;;;10.70;;
51913;SDS011;37940;53.002;6.930;2022-09-28T08:43:01;90.32;;;12.85;;
51913;SDS011;37940;53.002;6.930;2022-09-28T08:45:31;38.92;;;10.60;;
51913;SDS011;37940;53.002;6.930;2022-09-28T08:50:55;23.30;;;10.40;;
51913;SDS011;37940;53.002;6.930;2022-09-28T08:53:30;17.25;;;10.35;;
51913;SDS011;37940;53.002;6.930;2022-09-28T08:56:05;14.23;;;8.85;;
51913;SDS011;37940;53.002;6.930;2022-09-28T08:58:54;13.07;;;8.82;;
51913;SDS011;37940;53.002;6.930;2022-09-28T09:01:39;16.45;;;9.60;;
51913;SDS011;37940;53.002;6.930;2022-09-28T09:04:11;13.57;;;10.23;;
51913;SDS011;37940;53.002;6.930;2022-09-28T09:17:41;12.43;;;8.25;;
51913;SDS011;37940;53.002;6.930;2022-09-28T09:22:58;11.23;;;8.38;;
51913;SDS011;37940;53.002;6.930;2022-09-28T09:25:36;8.55;;;7.03;;
51913;SDS011;37940;53.002;6.930;2022-09-28T09:41:42;12.68;;;10.27;;
51913;SDS011;37940;53.002;6.930;2022-09-28T09:44:36;8.15;;;6.65;;
51913;SDS011;37940;53.002;6.930;2022-09-28T09:47:32;8.52;;;6.20;;
51913;SDS011;37940;53.002;6.930;2022-09-28T09:50:04;6.97;;;5.35;;
51913;SDS011;37940;53.002;6.930;2022-09-28T09:52:42;7.13;;;5.20;;
51913;SDS011;37940;53.002;6.930;2022-09-28T09:55:21;7.18;;;5.20;;
51913;SDS011;37940;53.002;6.930;2022-09-28T10:00:47;6.68;;;5.30;;
51913;SDS011;37940;53.002;6.930;2022-09-28T10:05:54;6.75;;;5.13;;
51913;SDS011;37940;53.002;6.930;2022-09-28T10:08:28;6.82;;;5.65;;
51913;SDS011;37940;53.002;6.930;2022-09-28T10:11:07;7.32;;;5.55;;
51913;SDS011;37940;53.002;6.930;2022-09-28T10:13:39;7.13;;;5.63;;
51913;SDS011;37940;53.002;6.930;2022-09-28T10:16:05;6.47;;;5.55;;
51913;SDS011;37940;53.002;6.930;2022-09-28T10:18:31;5.85;;;4.93;;
51913;SDS011;37940;53.002;6.930;2022-09-28T10:20:58;6.50;;;4.80;;
51913;SDS011;37940;53.002;6.930;2022-09-28T10:23:25;5.88;;;4.45;;
51913;SDS011;37940;53.002;6.930;2022-09-28T10:26:05;6.22;;;4.43;;
51913;SDS011;37940;53.002;6.930;2022-09-28T10:28:56;5.78;;;4.38;;
51913;SDS011;37940;53.002;6.930;2022-09-28T10:31:58;5.68;;;4.90;;
51913;SDS011;37940;53.002;6.930;2022-09-28T10:34:24;6.93;;;5.07;;
51913;SDS011;37940;53.002;6.930;2022-09-28T10:36:55;5.90;;;4.40;;
51913;SDS011;37940;53.002;6.930;2022-09-28T10:42:02;7.18;;;5.00;;
51913;SDS011;37940;53.002;6.930;2022-09-28T10:44:46;6.03;;;4.65;;
51913;SDS011;37940;53.002;6.930;2022-09-28T10:47:16;4.90;;;4.30;;
51913;SDS011;37940;53.002;6.930;2022-09-28T10:49:44;6.05;;;4.72;;
51913;SDS011;37940;53.002;6.930;2022-09-28T10:52:28;5.65;;;4.95;;
51913;SDS011;37940;53.002;6.930;2022-09-28T10:55:21;6.00;;;4.63;;
51913;SDS011;37940;53.002;6.930;2022-09-28T10:57:50;5.88;;;4.68;;
51913;SDS011;37940;53.002;6.930;2022-09-28T11:00:34;6.40;;;4.90;;
51913;SDS011;37940;53.002;6.930;2022-09-28T11:03:16;7.30;;;5.05;;
51913;SDS011;37940;53.002;6.930;2022-09-28T11:06:22;6.53;;;4.25;;
51913;SDS011;37940;53.002;6.930;2022-09-28T11:08:47;7.22;;;4.93;;
51913;SDS011;37940;53.002;6.930;2022-09-28T11:11:14;6.85;;;5.40;;
51913;SDS011;37940;53.002;6.930;2022-09-28T11:13:50;5.97;;;4.40;;
51913;SDS011;37940;53.002;6.930;2022-09-28T11:16:28;5.78;;;4.18;;
51913;SDS011;37940;53.002;6.930;2022-09-28T11:18:57;6.25;;;4.15;;
51913;SDS011;37940;53.002;6.930;2022-09-28T11:21:28;5.53;;;3.23;;
51913;SDS011;37940;53.002;6.930;2022-09-28T11:24:00;5.20;;;3.97;;
51913;SDS011;37940;53.002;6.930;2022-09-28T11:26:36;5.55;;;4.40;;
51913;SDS011;37940;53.002;6.930;2022-09-28T11:29:05;5.43;;;4.22;;
51913;SDS011;37940;53.002;6.930;2022-09-28T11:31:31;5.32;;;3.60;;
51913;SDS011;37940;53.002;6.930;2022-09-28T11:34:10;4.93;;;3.25;;
51913;SDS011;37940;53.002;6.930;2022-09-28T11:36:44;5.57;;;2.90;;
51913;SDS011;37940;53.002;6.930;2022-09-28T11:50:13;4.53;;;2.70;;
51913;SDS011;37940;53.002;6.930;2022-09-28T11:53:08;3.78;;;2.40;;
51913;SDS011;37940;53.002;6.930;2022-09-28T11:56:11;3.78;;;2.30;;
51913;SDS011;37940;53.002;6.930;2022-09-28T12:01:48;4.95;;;3.28;;
51913;SDS011;37940;53.002;6.930;2022-09-28T12:04:21;7.18;;;3.72;;
51913;SDS011;37940;53.002;6.930;2022-09-28T12:07:03;3.45;;;2.50;;
51913;SDS011;37940;53.002;6.930;2022-09-28T12:12:30;4.95;;;2.75;;
51913;SDS011;37940;53.002;6.930;2022-09-28T12:15:21;3.78;;;2.70;;
51913;SDS011;37940;53.002;6.930;2022-09-28T12:17:49;4.07;;;2.60;;
51913;SDS011;37940;53.002;6.930;2022-09-28T12:22:55;4.47;;;2.75;;
51913;SDS011;37940;53.002;6.930;2022-09-28T12:25:58;3.42;;;2.42;;
51913;SDS011;37940;53.002;6.930;2022-09-28T12:28:41;4.20;;;2.15;;
51913;SDS011;37940;53.002;6.930;2022-09-28T12:31:18;3.20;;;2.30;;
51913;SDS011;37940;53.002;6.930;2022-09-28T12:33:48;3.90;;;2.25;;
51913;SDS011;37940;53.002;6.930;2022-09-28T12:45:07;4.65;;;3.20;;
51913;SDS011;37940;53.002;6.930;2022-09-28T12:59:11;5.45;;;3.33;;
51913;SDS011;37940;53.002;6.930;2022-09-28T13:07:25;7.97;;;3.00;;
51913;SDS011;37940;53.002;6.930;2022-09-28T13:10:32;3.50;;;2.60;;
51913;SDS011;37940;53.002;6.930;2022-09-28T13:16:00;4.10;;;2.70;;
51913;SDS011;37940;53.002;6.930;2022-09-28T13:24:37;4.97;;;2.40;;
51913;SDS011;37940;53.002;6.930;2022-09-28T13:27:11;4.13;;;2.45;;
51913;SDS011;37940;53.002;6.930;2022-09-28T13:29:40;6.10;;;2.58;;
51913;SDS011;37940;53.002;6.930;2022-09-28T13:32:07;4.70;;;2.70;;
51913;SDS011;37940;53.002;6.930;2022-09-28T13:34:36;2.63;;;2.10;;
51913;SDS011;37940;53.002;6.930;2022-09-28T13:37:18;5.20;;;3.47;;
51913;SDS011;37940;53.002;6.930;2022-09-28T13:47:40;4.07;;;2.42;;
51913;SDS011;37940;53.002;6.930;2022-09-28T13:56:24;3.08;;;2.10;;
51913;SDS011;37940;53.002;6.930;2022-09-28T13:59:31;2.95;;;1.80;;
51913;SDS011;37940;53.002;6.930;2022-09-28T14:05:05;3.13;;;2.15;;
51913;SDS011;37940;53.002;6.930;2022-09-28T14:07:56;3.38;;;1.90;;
51913;SDS011;37940;53.002;6.930;2022-09-28T14:18:42;2.03;;;1.55;;
51913;SDS011;37940;53.002;6.930;2022-09-28T14:21:18;3.08;;;1.80;;
51913;SDS011;37940;53.002;6.930;2022-09-28T14:29:42;2.47;;;1.50;;
51913;SDS011;37940;53.002;6.930;2022-09-28T14:37:17;3.08;;;1.80;;
51913;SDS011;37940;53.002;6.930;2022-09-28T14:43:19;3.92;;;1.63;;
51913;SDS011;37940;53.002;6.930;2022-09-28T14:48:47;2.75;;;2.00;;
51913;SDS011;37940;53.002;6.930;2022-09-28T14:53:51;3.58;;;2.10;;
51913;SDS011;37940;53.002;6.930;2022-09-28T14:56:19;3.78;;;2.40;;
51913;SDS011;37940;53.002;6.930;2022-09-28T14:58:46;4.15;;;2.08;;
51913;SDS011;37940;53.002;6.930;2022-09-28T15:01:18;4.82;;;2.30;;
51913;SDS011;37940;53.002;6.930;2022-09-28T15:03:47;3.60;;;2.10;;
51913;SDS011;37940;53.002;6.930;2022-09-28T15:06:16;4.65;;;2.30;;
51913;SDS011;37940;53.002;6.930;2022-09-28T15:08:43;4.20;;;2.20;;
51913;SDS011;37940;53.002;6.930;2022-09-28T15:11:14;5.45;;;2.35;;
51913;SDS011;37940;53.002;6.930;2022-09-28T15:13:48;3.55;;;2.30;;
51913;SDS011;37940;53.002;6.930;2022-09-28T15:16:17;3.05;;;2.10;;
51913;SDS011;37940;53.002;6.930;2022-09-28T15:21:42;2.72;;;1.58;;
51913;SDS011;37940;53.002;6.930;2022-09-28T15:24:45;3.60;;;1.52;;
51913;SDS011;37940;53.002;6.930;2022-09-28T15:27:15;2.00;;;1.38;;
51913;SDS011;37940;53.002;6.930;2022-09-28T15:29:53;3.70;;;2.00;;
51913;SDS011;37940;53.002;6.930;2022-09-28T15:32:24;1.65;;;1.10;;
51913;SDS011;37940;53.002;6.930;2022-09-28T15:34:51;3.38;;;1.50;;
51913;SDS011;37940;53.002;6.930;2022-09-28T15:37:22;2.03;;;1.40;;
51913;SDS011;37940;53.002;6.930;2022-09-28T15:39:51;3.50;;;2.10;;
51913;SDS011;37940;53.002;6.930;2022-09-28T15:42:18;2.78;;;1.80;;
51913;SDS011;37940;53.002;6.930;2022-09-28T15:47:37;1.05;;;0.93;;
51913;SDS011;37940;53.002;6.930;2022-09-28T15:50:18;1.63;;;0.90;;
51913;SDS011;37940;53.002;6.930;2022-09-28T15:52:53;1.30;;;1.02;;
51913;SDS011;37940;53.002;6.930;2022-09-28T15:55:29;3.17;;;1.73;;
51913;SDS011;37940;53.002;6.930;2022-09-28T15:58:16;5.10;;;2.40;;
51913;SDS011;37940;53.002;6.930;2022-09-28T16:00:44;7.15;;;5.28;;
51913;SDS011;37940;53.002;6.930;2022-09-28T16:05:45;2.75;;;1.30;;
51913;SDS011;37940;53.002;6.930;2022-09-28T16:08:21;3.25;;;2.03;;
51913;SDS011;37940;53.002;6.930;2022-09-28T16:13:35;5.78;;;3.70;;
51913;SDS011;37940;53.002;6.930;2022-09-28T16:16:54;4.05;;;3.00;;
51913;SDS011;37940;53.002;6.930;2022-09-28T16:21:53;4.95;;;1.98;;
51913;SDS011;37940;53.002;6.930;2022-09-28T16:24:22;3.35;;;1.70;;
51913;SDS011;37940;53.002;6.930;2022-09-28T16:26:53;4.85;;;2.42;;
51913;SDS011;37940;53.002;6.930;2022-09-28T16:29:32;6.30;;;2.97;;
51913;SDS011;37940;53.002;6.930;2022-09-28T16:37:37;8.60;;;4.55;;
51913;SDS011;37940;53.002;6.930;2022-09-28T16:40:09;4.82;;;3.30;;
51913;SDS011;37940;53.002;6.930;2022-09-28T16:42:36;5.80;;;3.22;;
51913;SDS011;37940;53.002;6.930;2022-09-28T16:45:06;7.32;;;3.88;;
51913;SDS011;37940;53.002;6.930;2022-09-28T16:47:37;3.63;;;1.92;;
51913;SDS011;37940;53.002;6.930;2022-09-28T16:50:05;4.03;;;2.10;;
51913;SDS011;37940;53.002;6.930;2022-09-28T16:52:31;3.50;;;1.80;;
51913;SDS011;37940;53.002;6.930;2022-09-28T16:55:16;3.30;;;2.17;;
51913;SDS011;37940;53.002;6.930;2022-09-28T16:57:42;2.70;;;1.75;;
51913;SDS011;37940;53.002;6.930;2022-09-28T17:02:45;4.05;;;2.50;;
51913;SDS011;37940;53.002;6.930;2022-09-28T17:05:17;5.80;;;3.70;;
51913;SDS011;37940;53.002;6.930;2022-09-28T17:07:47;6.65;;;5.22;;
51913;SDS011;37940;53.002;6.930;2022-09-28T17:10:20;6.07;;;4.40;;
51913;SDS011;37940;53.002;6.930;2022-09-28T17:12:51;8.38;;;4.82;;
51913;SDS011;37940;53.002;6.930;2022-09-28T17:15:16;6.38;;;3.55;;
51913;SDS011;37940;53.002;6.930;2022-09-28T17:17:44;4.97;;;2.50;;
51913;SDS011;37940;53.002;6.930;2022-09-28T17:20:32;5.22;;;2.30;;
51913;SDS011;37940;53.002;6.930;2022-09-28T17:22:58;5.03;;;3.67;;
51913;SDS011;37940;53.002;6.930;2022-09-28T17:25:24;5.80;;;2.90;;
51913;SDS011;37940;53.002;6.930;2022-09-28T17:27:52;5.97;;;2.90;;
51913;SDS011;37940;53.002;6.930;2022-09-28T17:30:21;3.20;;;2.25;;
51913;SDS011;37940;53.002;6.930;2022-09-28T17:32:47;4.38;;;2.33;;
51913;SDS011;37940;53.002;6.930;2022-09-28T17:35:14;6.68;;;2.10;;
51913;SDS011;37940;53.002;6.930;2022-09-28T17:37:41;3.97;;;2.40;;
51913;SDS011;37940;53.002;6.930;2022-09-28T17:42:47;4.50;;;3.00;;
51913;SDS011;37940;53.002;6.930;2022-09-28T17:45:13;4.55;;;2.72;;
51913;SDS011;37940;53.002;6.930;2022-09-28T17:47:40;7.13;;;4.28;;
51913;SDS011;37940;53.002;6.930;2022-09-28T17:52:47;9.05;;;6.60;;
51913;SDS011;37940;53.002;6.930;2022-09-28T17:55:25;7.00;;;4.75;;
51913;SDS011;37940;53.002;6.930;2022-09-28T17:58:06;6.97;;;4.97;;
51913;SDS011;37940;53.002;6.930;2022-09-28T18:00:44;13.10;;;6.55;;
51913;SDS011;37940;53.002;6.930;2022-09-28T18:03:12;7.65;;;6.30;;
51913;SDS011;37940;53.002;6.930;2022-09-28T18:05:40;10.30;;;7.85;;
51913;SDS011;37940;53.002;6.930;2022-09-28T18:08:08;7.45;;;5.72;;
51913;SDS011;37940;53.002;6.930;2022-09-28T18:10:37;6.07;;;4.50;;
51913;SDS011;37940;53.002;6.930;2022-09-28T18:13:03;9.85;;;5.72;;
51913;SDS011;37940;53.002;6.930;2022-09-28T18:15:29;8.60;;;5.00;;
51913;SDS011;37940;53.002;6.930;2022-09-28T18:17:54;9.65;;;4.20;;
51913;SDS011;37940;53.002;6.930;2022-09-28T18:20:20;7.97;;;4.70;;
51913;SDS011;37940;53.002;6.930;2022-09-28T18:22:46;10.55;;;6.75;;
51913;SDS011;37940;53.002;6.930;2022-09-28T18:25:12;15.02;;;10.70;;
51913;SDS011;37940;53.002;6.930;2022-09-28T18:27:37;12.88;;;9.40;;